Time;durP1;ratioP1;P1;durP2;ratioP2;P2;SDS_P1;SDS_P2;PMS_P1;PMS_P2;Temp;Humidity;BMP_temperature;BMP_pressure;BME280_temperature;BME280_humidity;BME280_pressure;Samples;Min_cycle;Max_cycle;Signal;HPM_P1;HPM_P2
2022/12/25 00:00:22;;;;;;;22.52;12.13;;;6.10;99.90;;;;;;2516845;23;20006;-80
2022/12/25 00:01:24;;;;;;;24.05;12.07;;;6.00;99.90;;;;;;2527912;23;20014;-80
2022/12/25 00:02:25;;;;;;;23.50;12.02;;;6.00;99.90;;;;;;2528233;23;20009;-80
2022/12/25 00:03:25;;;;;;;22.65;11.05;;;6.10;99.90;;;;;;2525819;23;20543;-80
2022/12/25 00:04:26;;;;;;;21.17;10.93;;;6.00;99.90;;;;;;2538008;23;20020;-83
2022/12/25 00:05:29;;;;;;;21.27;11.15;;;6.00;99.90;;;;;;2526192;23;20010;-83
2022/12/25 00:06:30;;;;;;;26.67;12.43;;;6.00;99.90;;;;;;2516447;23;20356;-83
2022/12/25 00:07:31;;;;;;;22.02;11.80;;;6.00;99.90;;;;;;2514525;23;20038;-80
2022/12/25 00:08:32;;;;;;;23.88;11.73;;;6.10;99.90;;;;;;2537913;23;20091;-79
2022/12/25 00:09:33;;;;;;;23.13;12.00;;;6.10;99.90;;;;;;2550021;23;20005;-78
2022/12/25 00:10:33;;;;;;;22.60;11.85;;;6.10;99.90;;;;;;2538601;23;20012;-79
2022/12/25 00:11:34;;;;;;;23.30;11.70;;;6.10;99.90;;;;;;2540547;23;20025;-78
2022/12/25 00:12:34;;;;;;;24.75;12.05;;;6.10;99.90;;;;;;2536166;23;20005;-78
2022/12/25 00:13:35;;;;;;;24.85;13.13;;;6.10;99.90;;;;;;2536347;23;20005;-75
2022/12/25 00:14:36;;;;;;;25.05;12.43;;;6.10;99.90;;;;;;2537610;23;20072;-77
2022/12/25 00:15:39;;;;;;;23.13;11.85;;;6.10;99.90;;;;;;2539802;23;20010;-78
2022/12/25 00:16:40;;;;;;;24.00;11.35;;;6.10;99.90;;;;;;2537459;23;20103;-79
2022/12/25 00:17:40;;;;;;;24.95;11.32;;;6.10;99.90;;;;;;2538366;23;20472;-79
2022/12/25 00:18:41;;;;;;;20.13;10.63;;;6.10;99.90;;;;;;2538192;23;20328;-80
2022/12/25 00:19:41;;;;;;;22.27;11.07;;;6.20;99.90;;;;;;2559086;23;20016;-78
2022/12/25 00:20:42;;;;;;;25.42;12.27;;;6.20;99.90;;;;;;2550672;23;20064;-78
2022/12/25 00:21:43;;;;;;;26.38;12.15;;;6.20;99.90;;;;;;2552172;23;20720;-77
2022/12/25 00:22:43;;;;;;;25.23;11.60;;;6.20;99.90;;;;;;2550195;23;20218;-79
2022/12/25 00:23:44;;;;;;;20.67;10.43;;;6.30;99.90;;;;;;2563159;23;20126;-76
2022/12/25 00:24:46;;;;;;;19.23;10.25;;;6.30;99.90;;;;;;2565344;23;20357;-76
2022/12/25 00:25:47;;;;;;;20.67;9.95;;;6.30;99.90;;;;;;2563388;23;20004;-77
2022/12/25 00:26:47;;;;;;;17.33;9.60;;;6.30;99.90;;;;;;2549909;23;21122;-78
2022/12/25 00:27:48;;;;;;;19.08;9.27;;;6.40;99.90;;;;;;2549925;23;20011;-79
2022/12/25 00:28:52;;;;;;;17.25;8.80;;;6.40;99.90;;;;;;2563052;23;20052;-76
2022/12/25 00:29:53;;;;;;;16.30;9.18;;;6.40;99.90;;;;;;2552180;23;20147;-77
2022/12/25 00:30:54;;;;;;;18.42;8.93;;;6.40;99.90;;;;;;2537367;23;20100;-77
2022/12/25 00:31:55;;;;;;;16.77;8.40;;;6.50;99.90;;;;;;2537801;23;20033;-77
2022/12/25 00:32:55;;;;;;;14.27;8.13;;;6.40;99.90;;;;;;2549979;23;20001;-76
2022/12/25 00:33:56;;;;;;;15.93;8.55;;;6.40;99.90;;;;;;2539686;23;20006;-76
2022/12/25 00:34:57;;;;;;;18.75;8.60;;;6.50;99.90;;;;;;2537507;23;20002;-76
2022/12/25 00:35:58;;;;;;;17.02;7.80;;;6.40;99.90;;;;;;2562827;23;20487;-77
2022/12/25 00:36:59;;;;;;;17.48;7.95;;;6.50;99.90;;;;;;2549676;23;20088;-77
2022/12/25 00:38:00;;;;;;;17.92;8.23;;;6.50;99.90;;;;;;2549829;23;20565;-77
2022/12/25 00:39:01;;;;;;;15.60;8.43;;;6.50;99.90;;;;;;2565350;23;20008;-77
2022/12/25 00:40:02;;;;;;;15.32;8.15;;;6.50;99.90;;;;;;2549477;23;20019;-77
2022/12/25 00:41:11;;;;;;;18.73;9.20;;;6.40;99.90;;;;;;2549587;23;20024;-77
2022/12/25 00:42:17;;;;;;;23.80;10.07;;;6.50;99.90;;;;;;2549678;23;20288;-77
2022/12/25 00:43:19;;;;;;;21.80;9.65;;;6.40;99.90;;;;;;2550975;23;20020;-77
2022/12/25 00:44:19;;;;;;;17.92;9.02;;;6.40;99.90;;;;;;2561779;23;20009;-77
2022/12/25 00:45:20;;;;;;;16.50;9.25;;;6.40;99.90;;;;;;2556585;23;20004;-77
2022/12/25 00:46:20;;;;;;;15.80;8.73;;;6.40;99.90;;;;;;2551844;23;20012;-77
2022/12/25 00:47:21;;;;;;;18.23;8.55;;;6.30;99.90;;;;;;2549653;23;20092;-76
2022/12/25 00:48:21;;;;;;;15.15;8.10;;;6.30;99.90;;;;;;2562931;23;20500;-76
2022/12/25 00:49:22;;;;;;;17.98;9.55;;;6.30;99.90;;;;;;2563049;23;20160;-76
2022/12/25 00:50:23;;;;;;;19.63;9.93;;;6.30;99.90;;;;;;2549350;23;20024;-76
2022/12/25 00:51:23;;;;;;;17.13;9.32;;;6.20;99.90;;;;;;2539664;23;20331;-76
2022/12/25 00:52:24;;;;;;;16.85;9.02;;;6.20;99.90;;;;;;2549861;23;20482;-76
2022/12/25 00:53:25;;;;;;;17.15;9.02;;;6.20;99.90;;;;;;2562845;23;20437;-76
2022/12/25 00:54:26;;;;;;;18.30;8.85;;;6.20;99.90;;;;;;2563081;23;20004;-76
2022/12/25 00:55:26;;;;;;;18.30;8.73;;;6.10;99.90;;;;;;2564808;23;20511;-77
2022/12/25 00:56:27;;;;;;;13.85;8.05;;;6.10;99.90;;;;;;2562286;23;20015;-76
2022/12/25 00:57:27;;;;;;;15.38;8.65;;;6.10;99.90;;;;;;2562113;23;20083;-76
2022/12/25 00:58:30;;;;;;;13.52;8.10;;;6.10;99.90;;;;;;2562603;23;20011;-76
2022/12/25 00:59:32;;;;;;;15.50;8.30;;;6.10;99.90;;;;;;2561780;23;20008;-78
2022/12/25 01:00:33;;;;;;;21.35;9.07;;;6.10;99.90;;;;;;2551926;23;20081;-77
2022/12/25 01:01:33;;;;;;;17.27;8.50;;;6.00;99.90;;;;;;2549878;23;20476;-77
2022/12/25 01:02:34;;;;;;;16.60;8.70;;;6.00;99.90;;;;;;2562913;23;20421;-76
2022/12/25 01:03:34;;;;;;;19.42;8.90;;;6.00;99.90;;;;;;2549472;23;20080;-76
2022/12/25 01:04:35;;;;;;;17.50;9.10;;;6.00;99.90;;;;;;2527203;23;20006;-76
2022/12/25 01:05:35;;;;;;;18.15;8.95;;;6.00;99.90;;;;;;2537325;23;20001;-76
2022/12/25 01:06:36;;;;;;;17.73;8.65;;;5.90;99.90;;;;;;2562852;23;20009;-76
2022/12/25 01:07:37;;;;;;;19.38;8.93;;;6.00;99.90;;;;;;2562739;23;20114;-76
2022/12/25 01:10:21;;;;;;;18.40;8.80;;;5.90;99.90;;;;;;2562929;23;20028;-77
2022/12/25 01:10:21;;;;;;;17.98;9.25;;;5.90;99.90;;;;;;2561811;23;20267;-77
2022/12/25 01:11:21;;;;;;;19.00;8.90;;;5.90;99.90;;;;;;2564382;23;20345;-77
2022/12/25 01:12:22;;;;;;;16.95;9.55;;;5.90;99.90;;;;;;2562527;23;20020;-76
2022/12/25 01:13:23;;;;;;;18.38;9.32;;;5.80;99.90;;;;;;2562969;23;20012;-76
2022/12/25 01:14:24;;;;;;;19.25;9.13;;;5.80;99.90;;;;;;2562984;23;20508;-76
2022/12/25 01:15:25;;;;;;;20.67;9.75;;;5.80;99.90;;;;;;2550379;23;20005;-78
2022/12/25 01:16:25;;;;;;;21.55;10.20;;;5.80;99.90;;;;;;2552028;23;20001;-77
2022/12/25 01:17:26;;;;;;;19.27;9.60;;;5.80;99.90;;;;;;2562735;23;20004;-77
2022/12/25 01:18:26;;;;;;;18.05;9.40;;;5.80;99.90;;;;;;2549611;23;20430;-78
2022/12/25 01:19:27;;;;;;;20.27;9.48;;;5.80;99.90;;;;;;2549456;23;20009;-75
2022/12/25 01:20:28;;;;;;;18.20;9.23;;;5.80;99.90;;;;;;2564823;23;20354;-78
2022/12/25 01:21:29;;;;;;;16.90;9.07;;;5.80;99.90;;;;;;2563186;23;20007;-78
2022/12/25 01:22:29;;;;;;;19.52;9.32;;;5.70;99.90;;;;;;2563343;23;20710;-77
2022/12/25 01:23:30;;;;;;;20.20;10.75;;;5.70;99.90;;;;;;2563815;23;20011;-78
2022/12/25 01:24:31;;;;;;;22.33;10.65;;;5.70;99.90;;;;;;2564255;23;20002;-77
2022/12/25 01:25:34;;;;;;;19.80;9.77;;;5.60;99.90;;;;;;2565729;23;20012;-78
2022/12/25 01:26:34;;;;;;;20.35;9.20;;;5.60;99.90;;;;;;2563754;23;20001;-78
2022/12/25 01:27:35;;;;;;;16.25;8.95;;;5.60;99.90;;;;;;2563437;23;20143;-78
2022/12/25 01:28:37;;;;;;;15.07;8.63;;;5.50;99.90;;;;;;2563698;23;20095;-78
2022/12/25 01:29:37;;;;;;;16.77;8.98;;;5.50;99.90;;;;;;2552658;23;20389;-78
2022/12/25 01:30:46;;;;;;;16.55;8.80;;;5.50;99.90;;;;;;2550438;23;20029;-77
2022/12/25 01:31:46;;;;;;;15.35;8.88;;;5.50;99.90;;;;;;2550621;23;20072;-78
2022/12/25 01:32:47;;;;;;;22.77;10.82;;;5.40;99.90;;;;;;2550669;23;20005;-78
2022/12/25 01:33:47;;;;;;;21.67;9.85;;;5.40;99.90;;;;;;2565866;23;20319;-78
2022/12/25 01:34:48;;;;;;;17.88;9.45;;;5.30;99.90;;;;;;2563868;23;20385;-78
2022/12/25 01:35:48;;;;;;;17.10;9.75;;;5.30;99.90;;;;;;2549909;23;20188;-78
2022/12/25 01:36:49;;;;;;;18.27;9.57;;;5.30;99.90;;;;;;2549634;23;20013;-78
2022/12/25 01:37:51;;;;;;;22.05;9.65;;;5.30;99.90;;;;;;2564623;23;20076;-77
2022/12/25 01:38:53;;;;;;;18.10;9.40;;;5.30;99.90;;;;;;2562760;23;20260;-78
2022/12/25 01:39:53;;;;;;;17.58;9.30;;;5.30;99.90;;;;;;2562722;23;20012;-77
2022/12/25 01:40:54;;;;;;;16.88;8.75;;;5.30;99.90;;;;;;2562882;23;20155;-78
2022/12/25 01:41:55;;;;;;;18.27;9.10;;;5.30;99.90;;;;;;2564920;23;20004;-78
2022/12/25 01:42:55;;;;;;;16.85;8.68;;;5.20;99.90;;;;;;2562557;23;20008;-77
2022/12/25 01:44:06;;;;;;;19.83;9.27;;;5.30;99.90;;;;;;2562208;23;20499;-77
2022/12/25 01:45:34;;;;;;;18.25;8.43;;;5.30;99.90;;;;;;2547042;23;20585;-78
2022/12/25 01:46:35;;;;;;;18.80;9.00;;;5.20;99.90;;;;;;2555535;23;20020;-78
2022/12/25 01:47:36;;;;;;;18.58;9.52;;;5.20;99.90;;;;;;2564696;23;20009;-77
2022/12/25 01:48:38;;;;;;;20.88;9.30;;;5.20;99.90;;;;;;2551628;23;20781;-77
2022/12/25 01:49:41;;;;;;;21.45;9.77;;;5.20;99.90;;;;;;2549387;23;20009;-76
2022/12/25 01:50:46;;;;;;;19.33;9.18;;;5.10;99.90;;;;;;2537185;23;20482;-77
2022/12/25 01:51:58;;;;;;;20.77;9.55;;;5.10;99.90;;;;;;2527248;23;20125;-77
2022/12/25 01:52:59;;;;;;;21.05;9.68;;;5.10;99.90;;;;;;2541699;23;20395;-77
2022/12/25 01:54:04;;;;;;;19.55;9.73;;;5.10;99.90;;;;;;2525036;23;20021;-76
2022/12/25 01:55:08;;;;;;;19.90;9.60;;;5.10;99.90;;;;;;2539234;23;20350;-78
2022/12/25 01:56:08;;;;;;;20.38;9.75;;;5.00;99.90;;;;;;2562526;23;20052;-77
2022/12/25 01:57:15;;;;;;;20.50;9.63;;;5.00;99.90;;;;;;2549058;23;20005;-77
2022/12/25 01:58:17;;;;;;;20.95;9.85;;;5.00;99.90;;;;;;2550816;23;20428;-78
2022/12/25 01:59:20;;;;;;;20.70;10.35;;;5.00;99.90;;;;;;2562568;23;20103;-77
2022/12/25 02:00:21;;;;;;;20.38;9.98;;;5.00;99.90;;;;;;2564638;23;20011;-78
2022/12/25 02:01:22;;;;;;;18.33;9.48;;;4.90;99.90;;;;;;2549280;23;20433;-78
2022/12/25 02:02:23;;;;;;;22.63;9.98;;;4.90;99.90;;;;;;2537235;23;20013;-77
2022/12/25 02:03:24;;;;;;;18.73;9.75;;;4.90;99.90;;;;;;2537430;23;20008;-78
2022/12/25 02:04:39;;;;;;;19.63;9.93;;;4.90;99.90;;;;;;2536991;23;20009;-76
2022/12/25 02:05:40;;;;;;;19.65;9.95;;;4.80;99.90;;;;;;2539719;23;20005;-76
2022/12/25 02:06:41;;;;;;;18.85;9.77;;;4.80;99.90;;;;;;2524921;23;20033;-78
2022/12/25 02:07:42;;;;;;;18.05;9.52;;;4.80;99.90;;;;;;2539073;23;20040;-76
2022/12/25 02:08:43;;;;;;;18.98;9.40;;;4.80;99.90;;;;;;2562626;23;20015;-76
2022/12/25 02:09:45;;;;;;;17.05;8.90;;;4.70;99.90;;;;;;2562653;23;20011;-76
2022/12/25 02:10:46;;;;;;;16.08;8.98;;;4.70;99.90;;;;;;2561797;23;20005;-79
2022/12/25 02:11:56;;;;;;;16.58;8.90;;;4.70;99.90;;;;;;2564474;23;20019;-78
2022/12/25 02:12:57;;;;;;;20.05;9.32;;;4.70;99.90;;;;;;2562762;23;20054;-77
2022/12/25 02:13:58;;;;;;;18.35;9.98;;;4.70;99.90;;;;;;2565134;23;20087;-78
2022/12/25 02:15:19;;;;;;;18.02;9.20;;;4.70;99.90;;;;;;2551418;23;20016;-78
2022/12/25 02:16:26;;;;;;;18.65;9.10;;;4.70;99.90;;;;;;2553322;23;20477;-76
2022/12/25 02:17:44;;;;;;;16.60;9.48;;;4.80;99.90;;;;;;2539089;23;20636;-76
2022/12/25 02:19:01;;;;;;;19.75;9.40;;;4.80;99.90;;;;;;2543520;23;20127;-78
2022/12/25 02:20:20;;;;;;;20.17;9.73;;;4.80;99.90;;;;;;2561953;23;20100;-78
2022/12/25 02:22:06;;;;;;;19.38;9.70;;;4.90;99.90;;;;;;2562513;23;20374;-78
2022/12/25 02:23:09;;;;;;;18.63;9.73;;;4.90;99.90;;;;;;2564966;23;20008;-78
2022/12/25 02:24:47;;;;;;;15.50;8.75;;;4.90;99.90;;;;;;2565223;23;20090;-76
2022/12/25 02:26:12;;;;;;;18.10;8.52;;;4.90;99.90;;;;;;2561673;23;20088;-79
2022/12/25 02:27:50;;;;;;;13.93;7.80;;;4.90;99.90;;;;;;2561220;23;20042;-77
2022/12/25 02:29:01;;;;;;;14.65;8.25;;;4.90;99.90;;;;;;2524683;23;20009;-77
2022/12/25 02:30:05;;;;;;;17.90;8.70;;;4.90;99.90;;;;;;2553862;23;20044;-79
2022/12/25 02:31:25;;;;;;;15.30;8.02;;;4.90;99.90;;;;;;2551853;23;20051;-79
2022/12/25 02:32:35;;;;;;;17.77;8.73;;;4.80;99.90;;;;;;2553796;23;20394;-77
2022/12/25 02:34:02;;;;;;;14.40;8.20;;;4.80;99.90;;;;;;2562921;23;20248;-77
2022/12/25 02:35:22;;;;;;;14.40;8.20;;;4.80;99.90;;;;;;2549396;23;20237;-78
2022/12/25 02:36:27;;;;;;;15.27;7.95;;;4.80;99.90;;;;;;2551832;23;20021;-78
2022/12/25 02:37:42;;;;;;;14.90;8.00;;;4.80;99.90;;;;;;2552572;23;20009;-76
2022/12/25 02:40:30;;;;;;;18.23;8.82;;;4.80;99.90;;;;;;2562704;23;20409;-78
2022/12/25 02:41:36;;;;;;;14.50;8.13;;;4.70;99.90;;;;;;2564993;23;20001;-78
2022/12/25 03:07:42;;;;;;;15.70;7.55;;;4.60;99.90;;;;;;2553545;23;20088;-77
2022/12/25 03:08:46;;;;;;;15.75;8.02;;;4.60;99.90;;;;;;2551011;23;20016;-77
2022/12/25 03:11:31;;;;;;;16.77;7.72;;;4.50;99.90;;;;;;2549097;23;20013;-77
2022/12/25 03:12:52;;;;;;;15.13;7.60;;;4.50;99.90;;;;;;2538565;23;20037;-77
2022/12/25 03:16:49;;;;;;;14.55;6.95;;;4.50;99.90;;;;;;2564374;23;20020;-77
2022/12/25 03:17:50;;;;;;;13.07;6.68;;;4.50;99.90;;;;;;2536895;23;20006;-77
2022/12/25 03:18:53;;;;;;;16.40;7.40;;;4.50;99.90;;;;;;2537539;23;20128;-76
2022/12/25 03:26:55;;;;;;;17.70;7.97;;;4.50;99.90;;;;;;2562549;23;20597;-78
2022/12/25 03:27:57;;;;;;;16.92;7.70;;;4.50;99.90;;;;;;2562730;23;20004;-78
2022/12/25 03:28:58;;;;;;;16.73;8.00;;;4.50;99.90;;;;;;2549340;23;20076;-76
2022/12/25 03:31:52;;;;;;;17.95;7.95;;;4.50;99.90;;;;;;2561860;23;20080;-79
2022/12/25 03:33:04;;;;;;;14.25;7.28;;;4.50;99.90;;;;;;2564782;23;20012;-75
2022/12/25 03:36:05;;;;;;;17.10;7.45;;;4.60;99.90;;;;;;2562668;23;20008;-78
2022/12/25 03:39:38;;;;;;;16.77;8.10;;;4.60;99.90;;;;;;2549636;23;20008;-78
2022/12/25 03:44:21;;;;;;;14.82;7.13;;;4.60;99.90;;;;;;2549031;23;20005;-77
2022/12/25 04:36:47;;;;;;;15.52;8.02;;;3.80;99.90;;;;;;2551424;23;20029;-79
2022/12/25 04:37:47;;;;;;;14.70;8.07;;;3.80;99.90;;;;;;2551971;23;20012;-78
2022/12/25 04:38:48;;;;;;;14.18;8.25;;;3.80;99.90;;;;;;2562976;23;20330;-79
2022/12/25 04:39:48;;;;;;;14.05;8.20;;;3.80;99.90;;;;;;2562990;23;20015;-79
2022/12/25 04:40:49;;;;;;;13.18;7.93;;;3.70;99.90;;;;;;2552008;23;20019;-79
2022/12/25 04:41:49;;;;;;;13.40;8.05;;;3.70;99.90;;;;;;2550010;23;20004;-79
2022/12/25 04:42:50;;;;;;;13.73;7.95;;;3.70;99.90;;;;;;2550007;23;20024;-78
2022/12/25 04:43:51;;;;;;;14.45;8.10;;;3.70;99.90;;;;;;2525168;23;20097;-80
2022/12/25 04:44:51;;;;;;;16.55;8.32;;;3.70;99.90;;;;;;2525798;23;20493;-81
2022/12/25 04:45:57;;;;;;;15.35;8.10;;;3.70;99.90;;;;;;2537480;23;20553;-80
2022/12/25 04:46:58;;;;;;;13.85;8.10;;;3.80;99.90;;;;;;2551030;23;20009;-80
2022/12/25 04:47:59;;;;;;;14.68;7.88;;;3.80;99.90;;;;;;2549916;23;20049;-80
2022/12/25 04:49:00;;;;;;;13.70;7.82;;;3.70;99.90;;;;;;2537790;23;20157;-80
2022/12/25 04:50:00;;;;;;;14.40;7.78;;;3.70;99.90;;;;;;2539616;23;20213;-80
2022/12/25 04:51:21;;;;;;;15.15;8.00;;;3.70;99.90;;;;;;2550016;23;20005;-79
2022/12/25 04:52:22;;;;;;;13.85;7.70;;;3.70;99.90;;;;;;2564275;23;20437;-79
2022/12/25 04:53:23;;;;;;;13.73;7.47;;;3.70;99.90;;;;;;2562454;23;20039;-78
2022/12/25 04:54:23;;;;;;;12.15;7.43;;;3.70;99.90;;;;;;2563346;23;20012;-80
2022/12/25 04:55:24;;;;;;;13.90;7.72;;;3.60;99.90;;;;;;2562812;23;20004;-80
2022/12/25 04:56:24;;;;;;;12.80;7.22;;;3.70;99.90;;;;;;2562998;23;20288;-80
2022/12/25 04:57:25;;;;;;;15.20;7.80;;;3.70;99.90;;;;;;2537502;23;20005;-80
2022/12/25 04:58:25;;;;;;;15.00;7.72;;;3.70;99.90;;;;;;2539770;23;20012;-68
2022/12/25 04:59:26;;;;;;;15.50;7.65;;;3.70;99.90;;;;;;2562944;23;20059;-76
2022/12/25 05:00:26;;;;;;;13.80;8.07;;;3.70;99.90;;;;;;2563122;23;20004;-81
2022/12/25 05:01:27;;;;;;;14.10;7.70;;;3.70;99.90;;;;;;2549591;23;20001;-68
2022/12/25 05:02:27;;;;;;;11.82;7.43;;;3.70;99.90;;;;;;2539458;23;20017;-69
2022/12/25 05:03:29;;;;;;;14.38;7.75;;;3.70;99.90;;;;;;2549195;23;20008;-69
2022/12/25 05:04:30;;;;;;;12.57;7.53;;;3.70;99.90;;;;;;2562748;23;20131;-69
2022/12/25 05:05:30;;;;;;;13.68;7.70;;;3.60;99.90;;;;;;2562667;23;19996;-69
2022/12/25 05:06:31;;;;;;;13.52;7.40;;;3.60;99.90;;;;;;2549578;23;20373;-70
2022/12/25 05:07:32;;;;;;;12.85;7.82;;;3.60;99.90;;;;;;2551854;23;20005;-69
2022/12/25 05:08:34;;;;;;;15.32;7.60;;;3.50;99.90;;;;;;2549592;23;20469;-69
2022/12/25 05:09:34;;;;;;;10.98;7.05;;;3.50;99.90;;;;;;2550132;23;20064;-69
2022/12/25 05:10:38;;;;;;;14.45;7.45;;;3.50;99.90;;;;;;2550553;23;20041;-69
2022/12/25 05:11:39;;;;;;;14.00;7.63;;;3.50;99.90;;;;;;2552580;23;20084;-69
2022/12/25 05:12:39;;;;;;;13.77;7.28;;;3.50;99.90;;;;;;2562810;23;20008;-69
2022/12/25 05:13:40;;;;;;;12.45;7.38;;;3.50;99.90;;;;;;2549536;23;20005;-69
2022/12/25 05:14:41;;;;;;;14.02;7.45;;;3.40;99.90;;;;;;2537299;23;20533;-70
2022/12/25 05:15:42;;;;;;;12.00;7.00;;;3.40;99.90;;;;;;2549497;23;20009;-69
2022/12/25 05:16:42;;;;;;;14.07;7.85;;;3.40;99.90;;;;;;2562856;23;20001;-69
2022/12/25 05:17:43;;;;;;;14.57;7.68;;;3.40;99.90;;;;;;2564831;23;20016;-69
2022/12/25 05:18:44;;;;;;;15.98;7.75;;;3.40;99.90;;;;;;2562576;23;20007;-70
2022/12/25 05:19:45;;;;;;;12.07;7.45;;;3.40;99.90;;;;;;2562485;23;20013;-69
2022/12/25 05:20:53;;;;;;;13.20;7.50;;;3.40;99.90;;;;;;2562771;23;20398;-69
2022/12/25 05:21:54;;;;;;;12.75;7.40;;;3.30;99.90;;;;;;2537212;23;20064;-69
2022/12/25 05:22:54;;;;;;;15.50;7.68;;;3.30;99.90;;;;;;2539377;23;20088;-70
2022/12/25 05:23:55;;;;;;;13.80;7.88;;;3.30;99.90;;;;;;2562858;23;20530;-69
2022/12/25 05:24:55;;;;;;;13.80;7.70;;;3.30;99.90;;;;;;2562652;23;20023;-69
2022/12/25 05:25:56;;;;;;;14.60;7.65;;;3.30;99.90;;;;;;2563068;23;20089;-70
2022/12/25 05:26:57;;;;;;;13.73;7.53;;;3.20;99.90;;;;;;2551390;23;20474;-70
2022/12/25 05:27:57;;;;;;;13.25;7.55;;;3.30;99.90;;;;;;2537269;23;20009;-69
2022/12/25 05:28:58;;;;;;;11.57;7.03;;;3.20;99.90;;;;;;2537397;23;20181;-71
2022/12/25 05:29:59;;;;;;;13.32;7.57;;;3.20;99.90;;;;;;2549553;23;20016;-67
2022/12/25 05:30:59;;;;;;;12.50;7.07;;;3.20;99.90;;;;;;2551861;23;20769;-71
2022/12/25 05:32:00;;;;;;;13.75;6.97;;;3.20;99.90;;;;;;2537663;23;20008;-70
2022/12/25 05:33:01;;;;;;;13.15;7.53;;;3.20;99.90;;;;;;2549793;23;20406;-68
2022/12/25 05:34:02;;;;;;;12.90;7.25;;;3.20;99.90;;;;;;2563049;23;20004;-69
2022/12/25 05:35:03;;;;;;;12.77;7.35;;;3.20;99.90;;;;;;2552699;23;20015;-69
2022/12/25 05:36:08;;;;;;;11.98;6.93;;;3.20;99.90;;;;;;2538277;23;20014;-69
2022/12/25 05:37:09;;;;;;;11.90;7.00;;;3.20;99.90;;;;;;2539201;23;20076;-70
2022/12/25 05:38:09;;;;;;;12.98;7.18;;;3.20;99.90;;;;;;2550312;23;20013;-69
2022/12/25 05:39:10;;;;;;;12.80;7.20;;;3.20;99.90;;;;;;2563902;23;20009;-69
2022/12/25 05:40:11;;;;;;;12.75;7.10;;;3.20;99.90;;;;;;2566046;23;20015;-69
2022/12/25 05:41:11;;;;;;;12.43;6.93;;;3.20;99.90;;;;;;2563484;23;20013;-70
2022/12/25 05:42:12;;;;;;;17.70;7.78;;;3.20;99.90;;;;;;2562154;23;20230;-69
2022/12/25 05:43:12;;;;;;;14.23;7.40;;;3.20;99.90;;;;;;2549161;23;20473;-69
2022/12/25 05:44:13;;;;;;;13.25;7.25;;;3.20;99.90;;;;;;2551306;23;20001;-69
2022/12/25 05:45:13;;;;;;;14.48;7.38;;;3.20;99.90;;;;;;2555811;23;20477;-69
2022/12/25 05:46:14;;;;;;;15.10;7.53;;;3.20;99.90;;;;;;2549015;23;20005;-69
2022/12/25 05:47:14;;;;;;;12.40;7.10;;;3.20;99.90;;;;;;2549292;23;20028;-68
2022/12/25 05:48:15;;;;;;;13.40;7.28;;;3.20;99.90;;;;;;2564105;23;20005;-69
2022/12/25 05:49:16;;;;;;;13.13;7.93;;;3.20;99.90;;;;;;2549146;23;20258;-68
2022/12/25 05:50:17;;;;;;;12.88;7.45;;;3.20;99.90;;;;;;2549522;23;20040;-68
2022/12/25 05:51:17;;;;;;;10.70;7.15;;;3.20;99.90;;;;;;2562543;23;20024;-69
2022/12/25 05:52:18;;;;;;;12.90;7.00;;;3.20;99.90;;;;;;2562695;23;20373;-69
2022/12/25 05:53:18;;;;;;;15.05;7.97;;;3.20;99.90;;;;;;2564840;23;20028;-69
2022/12/25 05:54:19;;;;;;;16.77;7.95;;;3.20;99.90;;;;;;2562501;23;20063;-70
2022/12/25 05:55:20;;;;;;;14.35;7.63;;;3.20;99.90;;;;;;2562379;23;20008;-69
2022/12/25 05:56:20;;;;;;;14.80;7.47;;;3.20;99.90;;;;;;2562468;23;20004;-69
2022/12/25 05:57:21;;;;;;;13.98;7.53;;;3.20;99.90;;;;;;2551204;23;20457;-70
2022/12/25 05:58:21;;;;;;;15.38;7.47;;;3.20;99.90;;;;;;2549370;23;20176;-69
2022/12/25 05:59:22;;;;;;;14.80;7.85;;;3.20;99.90;;;;;;2562511;23;20515;-69
2022/12/25 06:00:22;;;;;;;15.35;7.60;;;3.20;99.90;;;;;;2549506;23;19997;-70
2022/12/25 06:01:25;;;;;;;14.25;7.90;;;3.20;99.90;;;;;;2550223;23;20004;-69
2022/12/25 06:02:26;;;;;;;14.73;7.82;;;3.20;99.90;;;;;;2563415;23;20032;-69
2022/12/25 06:03:27;;;;;;;15.43;7.93;;;3.10;99.90;;;;;;2565862;23;20322;-69
2022/12/25 06:04:28;;;;;;;13.82;7.72;;;3.10;99.90;;;;;;2563151;23;20068;-70
2022/12/25 06:05:28;;;;;;;12.38;8.00;;;3.10;99.90;;;;;;2562600;23;20012;-69
2022/12/25 06:06:29;;;;;;;11.45;7.35;;;3.10;99.90;;;;;;2562415;23;20011;-69
2022/12/25 06:07:30;;;;;;;12.00;7.68;;;3.10;99.90;;;;;;2564649;23;20529;-69
2022/12/25 06:08:30;;;;;;;13.63;7.53;;;3.00;99.90;;;;;;2549433;23;20001;-69
2022/12/25 06:09:31;;;;;;;14.23;7.50;;;3.00;99.90;;;;;;2549423;23;20080;-68
2022/12/25 06:10:31;;;;;;;13.18;7.63;;;3.00;99.90;;;;;;2549283;23;20295;-68
2022/12/25 06:11:32;;;;;;;10.93;7.25;;;3.00;99.90;;;;;;2524648;23;20010;-68
2022/12/25 06:12:33;;;;;;;14.77;7.95;;;3.00;99.90;;;;;;2539339;23;20108;-69
2022/12/25 06:13:34;;;;;;;16.27;7.68;;;3.00;99.90;;;;;;2562604;23;20532;-69
2022/12/25 06:14:35;;;;;;;14.68;7.15;;;3.00;99.90;;;;;;2562812;23;20015;-69
2022/12/25 06:15:39;;;;;;;12.30;7.00;;;2.90;99.90;;;;;;2562473;23;20416;-69
2022/12/25 06:16:40;;;;;;;13.23;7.28;;;2.90;99.90;;;;;;2565390;23;20213;-68
2022/12/25 06:17:41;;;;;;;10.32;6.80;;;2.90;99.90;;;;;;2549980;23;20033;-68
2022/12/25 06:18:43;;;;;;;11.77;7.50;;;2.90;99.90;;;;;;2549616;23;20009;-70
2022/12/25 06:19:44;;;;;;;15.63;7.82;;;2.90;99.90;;;;;;2562504;23;20444;-70
2022/12/25 06:20:44;;;;;;;13.43;7.35;;;2.90;99.90;;;;;;2561927;23;20013;-70
2022/12/25 06:21:45;;;;;;;12.35;7.05;;;2.90;99.90;;;;;;2551694;23;20124;-71
2022/12/25 06:22:45;;;;;;;13.80;7.45;;;2.90;99.90;;;;;;2549797;23;20009;-69
2022/12/25 06:23:46;;;;;;;15.38;7.38;;;2.90;99.90;;;;;;2549031;23;20103;-70
2022/12/25 06:24:47;;;;;;;14.93;7.78;;;2.90;99.90;;;;;;2537205;23;20029;-70
2022/12/25 06:25:47;;;;;;;13.50;7.53;;;2.90;99.90;;;;;;2551778;23;20005;-70
2022/12/25 06:26:48;;;;;;;13.23;7.60;;;2.90;99.90;;;;;;2562435;23;20303;-70
2022/12/25 06:27:48;;;;;;;16.48;7.95;;;2.80;99.90;;;;;;2562505;23;20020;-70
2022/12/25 06:28:49;;;;;;;14.73;8.65;;;2.80;99.90;;;;;;2562358;23;20016;-70
2022/12/25 06:29:50;;;;;;;15.10;8.70;;;2.80;99.90;;;;;;2562518;23;20345;-70
2022/12/25 06:30:50;;;;;;;16.98;9.48;;;2.80;99.90;;;;;;2549145;23;20731;-69
2022/12/25 06:31:55;;;;;;;18.45;10.20;;;2.80;99.90;;;;;;2538796;23;20068;-69
2022/12/25 06:32:58;;;;;;;19.15;9.80;;;2.80;99.90;;;;;;2552052;23;20429;-69
2022/12/25 06:33:58;;;;;;;17.98;9.30;;;2.80;99.90;;;;;;2549217;23;20880;-70
2022/12/25 06:34:59;;;;;;;18.17;9.75;;;2.80;99.90;;;;;;2536944;23;20064;-69
2022/12/25 06:36:07;;;;;;;20.65;10.30;;;2.80;99.90;;;;;;2549144;23;20013;-70
2022/12/25 06:37:08;;;;;;;18.30;10.07;;;2.80;99.90;;;;;;2564593;23;20341;-69
2022/12/25 06:38:08;;;;;;;20.88;11.10;;;2.80;99.90;;;;;;2562379;23;20001;-69
2022/12/25 06:39:09;;;;;;;21.85;11.25;;;2.80;99.90;;;;;;2549171;23;20681;-69
2022/12/25 06:40:11;;;;;;;28.48;14.80;;;2.80;99.90;;;;;;2549228;23;20001;-69
2022/12/25 06:41:15;;;;;;;26.50;14.85;;;2.80;99.90;;;;;;2537167;23;20009;-69
2022/12/25 06:42:15;;;;;;;27.75;14.70;;;2.80;99.90;;;;;;2549739;23;20005;-69
2022/12/25 06:43:16;;;;;;;24.73;13.75;;;2.80;99.90;;;;;;2564449;23;20001;-69
2022/12/25 06:44:16;;;;;;;23.80;12.65;;;2.80;99.90;;;;;;2561745;23;20024;-69
2022/12/25 06:45:17;;;;;;;22.10;12.05;;;2.80;99.90;;;;;;2541061;23;20089;-69
2022/12/25 06:46:18;;;;;;;22.52;12.23;;;2.80;99.90;;;;;;2551458;23;20153;-69
2022/12/25 06:47:18;;;;;;;23.13;11.98;;;2.80;99.90;;;;;;2562253;23;20005;-73
2022/12/25 06:48:19;;;;;;;27.48;12.52;;;2.70;99.90;;;;;;2562590;23;20012;-72
2022/12/25 06:49:20;;;;;;;26.00;13.25;;;2.70;99.90;;;;;;2562314;23;20004;-71
2022/12/25 06:50:21;;;;;;;27.63;13.95;;;2.70;99.90;;;;;;2548995;23;20023;-70
2022/12/25 06:51:25;;;;;;;26.00;13.85;;;2.70;99.90;;;;;;2550008;23;20253;-71
2022/12/25 06:52:25;;;;;;;26.63;14.18;;;2.70;99.90;;;;;;2549677;23;20001;-69
2022/12/25 06:53:26;;;;;;;28.30;14.70;;;2.80;99.90;;;;;;2536373;23;19997;-69
2022/12/25 06:54:26;;;;;;;27.15;13.57;;;2.80;99.90;;;;;;2536616;23;20403;-68
2022/12/25 06:55:27;;;;;;;26.75;13.30;;;2.80;99.90;;;;;;2549151;23;20256;-69
2022/12/25 06:56:28;;;;;;;31.83;15.65;;;2.70;99.90;;;;;;2538683;23;20009;-68
2022/12/25 06:57:29;;;;;;;26.25;14.30;;;2.70;99.90;;;;;;2524579;23;20009;-72
2022/12/25 06:58:30;;;;;;;26.60;14.18;;;2.70;99.90;;;;;;2537116;23;20406;-68
2022/12/25 06:59:31;;;;;;;28.92;15.75;;;2.70;99.90;;;;;;2536869;23;20013;-71
2022/12/25 07:00:31;;;;;;;29.60;14.55;;;2.70;99.90;;;;;;2549296;23;20013;-68
2022/12/25 07:01:45;;;;;;;25.13;13.60;;;2.70;99.90;;;;;;2551276;23;20075;-69
2022/12/25 07:02:48;;;;;;;27.30;14.80;;;2.70;99.90;;;;;;2552004;23;20664;-70
2022/12/25 07:03:52;;;;;;;28.67;15.68;;;2.70;99.90;;;;;;2551104;23;20393;-69
2022/12/25 07:04:53;;;;;;;27.83;14.90;;;2.70;99.90;;;;;;2548793;23;20362;-71
2022/12/25 07:05:54;;;;;;;30.45;15.80;;;2.70;99.90;;;;;;2548993;23;20005;-69